sensor_id;sensor_type;location;lat;lon;timestamp;P1;durP1;ratioP1;P2;durP2;ratioP2
24801;SDS011;12898;50.520;12.152;2023-12-22T00:01:54;15.87;;;2.43;;
24801;SDS011;12898;50.520;12.152;2023-12-22T00:04:20;15.57;;;2.43;;
24801;SDS011;12898;50.520;12.152;2023-12-22T00:06:46;17.77;;;2.90;;
24801;SDS011;12898;50.520;12.152;2023-12-22T00:09:13;14.67;;;3.20;;
24801;SDS011;12898;50.520;12.152;2023-12-22T00:11:39;20.20;;;3.63;;
24801;SDS011;12898;50.520;12.152;2023-12-22T00:14:05;15.30;;;2.40;;
24801;SDS011;12898;50.520;12.152;2023-12-22T00:16:31;20.33;;;3.13;;
24801;SDS011;12898;50.520;12.152;2023-12-22T00:18:56;16.83;;;3.40;;
24801;SDS011;12898;50.520;12.152;2023-12-22T00:21:22;21.60;;;3.10;;
24801;SDS011;12898;50.520;12.152;2023-12-22T00:23:48;18.43;;;3.00;;
24801;SDS011;12898;50.520;12.152;2023-12-22T00:26:14;20.07;;;3.33;;
24801;SDS011;12898;50.520;12.152;2023-12-22T00:28:40;27.03;;;3.73;;
24801;SDS011;12898;50.520;12.152;2023-12-22T00:31:06;17.60;;;3.00;;
24801;SDS011;12898;50.520;12.152;2023-12-22T00:33:32;21.47;;;3.27;;
24801;SDS011;12898;50.520;12.152;2023-12-22T00:35:58;24.73;;;3.73;;
24801;SDS011;12898;50.520;12.152;2023-12-22T00:38:24;20.97;;;3.70;;
24801;SDS011;12898;50.520;12.152;2023-12-22T00:40:50;20.53;;;3.13;;
24801;SDS011;12898;50.520;12.152;2023-12-22T00:43:15;22.47;;;3.50;;
24801;SDS011;12898;50.520;12.152;2023-12-22T00:45:41;18.73;;;3.10;;
24801;SDS011;12898;50.520;12.152;2023-12-22T00:48:07;16.83;;;2.97;;
24801;SDS011;12898;50.520;12.152;2023-12-22T00:50:33;16.80;;;3.00;;
24801;SDS011;12898;50.520;12.152;2023-12-22T00:52:58;24.03;;;3.10;;
24801;SDS011;12898;50.520;12.152;2023-12-22T00:55:24;20.33;;;4.13;;
24801;SDS011;12898;50.520;12.152;2023-12-22T00:57:50;19.13;;;4.00;;
24801;SDS011;12898;50.520;12.152;2023-12-22T01:00:15;22.87;;;3.37;;
24801;SDS011;12898;50.520;12.152;2023-12-22T01:02:42;18.80;;;3.70;;
24801;SDS011;12898;50.520;12.152;2023-12-22T01:05:08;22.33;;;4.70;;
24801;SDS011;12898;50.520;12.152;2023-12-22T01:07:34;25.50;;;4.33;;
24801;SDS011;12898;50.520;12.152;2023-12-22T01:09:59;22.90;;;3.53;;
24801;SDS011;12898;50.520;12.152;2023-12-22T01:12:27;19.27;;;3.10;;
24801;SDS011;12898;50.520;12.152;2023-12-22T01:14:54;24.90;;;3.47;;
24801;SDS011;12898;50.520;12.152;2023-12-22T01:17:20;20.10;;;3.83;;
24801;SDS011;12898;50.520;12.152;2023-12-22T01:19:46;27.07;;;3.57;;
24801;SDS011;12898;50.520;12.152;2023-12-22T01:22:12;20.50;;;3.40;;
24801;SDS011;12898;50.520;12.152;2023-12-22T01:24:38;17.30;;;3.00;;
24801;SDS011;12898;50.520;12.152;2023-12-22T01:27:06;23.83;;;5.40;;
24801;SDS011;12898;50.520;12.152;2023-12-22T01:29:32;18.07;;;3.70;;
24801;SDS011;12898;50.520;12.152;2023-12-22T01:31:58;30.23;;;4.03;;
24801;SDS011;12898;50.520;12.152;2023-12-22T01:34:23;28.93;;;4.07;;
24801;SDS011;12898;50.520;12.152;2023-12-22T01:36:49;21.63;;;3.60;;
24801;SDS011;12898;50.520;12.152;2023-12-22T01:39:15;21.23;;;4.20;;
24801;SDS011;12898;50.520;12.152;2023-12-22T01:41:41;22.67;;;4.27;;
24801;SDS011;12898;50.520;12.152;2023-12-22T01:44:07;19.23;;;3.23;;
24801;SDS011;12898;50.520;12.152;2023-12-22T01:46:33;22.73;;;3.20;;
24801;SDS011;12898;50.520;12.152;2023-12-22T01:49:00;23.50;;;3.80;;
24801;SDS011;12898;50.520;12.152;2023-12-22T01:51:27;24.50;;;3.60;;
24801;SDS011;12898;50.520;12.152;2023-12-22T01:53:59;17.47;;;3.13;;
24801;SDS011;12898;50.520;12.152;2023-12-22T01:56:28;26.67;;;3.67;;
24801;SDS011;12898;50.520;12.152;2023-12-22T01:58:55;18.13;;;3.17;;
24801;SDS011;12898;50.520;12.152;2023-12-22T02:01:24;19.80;;;3.57;;
24801;SDS011;12898;50.520;12.152;2023-12-22T02:03:52;19.40;;;3.03;;
24801;SDS011;12898;50.520;12.152;2023-12-22T02:06:19;22.27;;;3.03;;
24801;SDS011;12898;50.520;12.152;2023-12-22T02:08:46;16.43;;;2.67;;
24801;SDS011;12898;50.520;12.152;2023-12-22T02:11:13;21.17;;;3.73;;
24801;SDS011;12898;50.520;12.152;2023-12-22T02:13:45;19.80;;;3.23;;
24801;SDS011;12898;50.520;12.152;2023-12-22T02:16:20;21.03;;;3.80;;
24801;SDS011;12898;50.520;12.152;2023-12-22T02:19:10;21.40;;;3.00;;
24801;SDS011;12898;50.520;12.152;2023-12-22T02:22:07;20.40;;;3.07;;
24801;SDS011;12898;50.520;12.152;2023-12-22T02:24:35;17.60;;;2.63;;
24801;SDS011;12898;50.520;12.152;2023-12-22T02:27:05;16.80;;;3.07;;
24801;SDS011;12898;50.520;12.152;2023-12-22T02:32:35;18.87;;;2.63;;
24801;SDS011;12898;50.520;12.152;2023-12-22T02:35:05;14.97;;;2.80;;
24801;SDS011;12898;50.520;12.152;2023-12-22T02:37:36;17.50;;;2.93;;
24801;SDS011;12898;50.520;12.152;2023-12-22T02:40:04;10.13;;;1.97;;
24801;SDS011;12898;50.520;12.152;2023-12-22T02:42:30;15.67;;;2.13;;
24801;SDS011;12898;50.520;12.152;2023-12-22T02:44:58;10.20;;;2.13;;
24801;SDS011;12898;50.520;12.152;2023-12-22T02:47:24;14.67;;;2.30;;
24801;SDS011;12898;50.520;12.152;2023-12-22T02:49:50;14.17;;;2.50;;
24801;SDS011;12898;50.520;12.152;2023-12-22T02:52:15;12.37;;;2.40;;
24801;SDS011;12898;50.520;12.152;2023-12-22T02:54:41;13.43;;;2.57;;
24801;SDS011;12898;50.520;12.152;2023-12-22T02:57:07;15.13;;;2.53;;
24801;SDS011;12898;50.520;12.152;2023-12-22T02:59:33;15.33;;;2.67;;
24801;SDS011;12898;50.520;12.152;2023-12-22T03:01:59;15.50;;;2.63;;
24801;SDS011;12898;50.520;12.152;2023-12-22T03:04:25;16.17;;;2.40;;
24801;SDS011;12898;50.520;12.152;2023-12-22T03:06:51;11.83;;;2.40;;
24801;SDS011;12898;50.520;12.152;2023-12-22T03:09:16;15.33;;;2.67;;
24801;SDS011;12898;50.520;12.152;2023-12-22T03:11:42;10.63;;;2.40;;
24801;SDS011;12898;50.520;12.152;2023-12-22T03:14:08;16.20;;;2.83;;
24801;SDS011;12898;50.520;12.152;2023-12-22T03:16:35;17.73;;;2.33;;
24801;SDS011;12898;50.520;12.152;2023-12-22T03:19:01;10.90;;;2.20;;
24801;SDS011;12898;50.520;12.152;2023-12-22T03:21:27;13.90;;;2.40;;
24801;SDS011;12898;50.520;12.152;2023-12-22T03:23:52;13.20;;;2.87;;
24801;SDS011;12898;50.520;12.152;2023-12-22T03:26:18;14.23;;;2.20;;
24801;SDS011;12898;50.520;12.152;2023-12-22T03:28:44;10.47;;;2.13;;
24801;SDS011;12898;50.520;12.152;2023-12-22T03:31:09;14.10;;;2.00;;
24801;SDS011;12898;50.520;12.152;2023-12-22T03:33:35;15.47;;;2.50;;
24801;SDS011;12898;50.520;12.152;2023-12-22T03:36:01;11.77;;;2.10;;
24801;SDS011;12898;50.520;12.152;2023-12-22T03:38:27;16.13;;;1.80;;
24801;SDS011;12898;50.520;12.152;2023-12-22T03:40:53;13.53;;;2.37;;
24801;SDS011;12898;50.520;12.152;2023-12-22T03:43:18;14.37;;;2.27;;
24801;SDS011;12898;50.520;12.152;2023-12-22T03:45:44;11.70;;;2.07;;
24801;SDS011;12898;50.520;12.152;2023-12-22T03:48:10;17.87;;;2.60;;
24801;SDS011;12898;50.520;12.152;2023-12-22T03:50:36;14.97;;;2.10;;
24801;SDS011;12898;50.520;12.152;2023-12-22T03:53:02;9.47;;;2.17;;
24801;SDS011;12898;50.520;12.152;2023-12-22T03:55:27;11.60;;;2.03;;
24801;SDS011;12898;50.520;12.152;2023-12-22T03:57:53;7.97;;;1.60;;
24801;SDS011;12898;50.520;12.152;2023-12-22T04:00:19;10.13;;;1.60;;
24801;SDS011;12898;50.520;12.152;2023-12-22T04:02:45;18.60;;;3.33;;
24801;SDS011;12898;50.520;12.152;2023-12-22T04:05:11;13.33;;;2.40;;
24801;SDS011;12898;50.520;12.152;2023-12-22T04:07:37;17.07;;;2.30;;
24801;SDS011;12898;50.520;12.152;2023-12-22T04:10:02;12.33;;;2.10;;
24801;SDS011;12898;50.520;12.152;2023-12-22T04:12:29;14.87;;;2.20;;
24801;SDS011;12898;50.520;12.152;2023-12-22T04:14:54;16.10;;;2.70;;
24801;SDS011;12898;50.520;12.152;2023-12-22T04:17:20;20.00;;;3.47;;
24801;SDS011;12898;50.520;12.152;2023-12-22T04:19:46;16.00;;;2.60;;
24801;SDS011;12898;50.520;12.152;2023-12-22T04:22:11;16.40;;;2.53;;
24801;SDS011;12898;50.520;12.152;2023-12-22T04:24:37;11.90;;;2.50;;
24801;SDS011;12898;50.520;12.152;2023-12-22T04:27:03;16.97;;;2.67;;
24801;SDS011;12898;50.520;12.152;2023-12-22T04:29:29;14.63;;;2.77;;
24801;SDS011;12898;50.520;12.152;2023-12-22T04:31:55;10.77;;;1.87;;
24801;SDS011;12898;50.520;12.152;2023-12-22T04:34:21;10.50;;;2.07;;
24801;SDS011;12898;50.520;12.152;2023-12-22T04:36:46;14.20;;;2.57;;
24801;SDS011;12898;50.520;12.152;2023-12-22T04:39:12;12.70;;;2.57;;
24801;SDS011;12898;50.520;12.152;2023-12-22T04:41:38;10.33;;;2.43;;
24801;SDS011;12898;50.520;12.152;2023-12-22T04:44:04;10.20;;;2.67;;
24801;SDS011;12898;50.520;12.152;2023-12-22T04:46:30;14.43;;;2.63;;
24801;SDS011;12898;50.520;12.152;2023-12-22T04:48:55;16.07;;;2.73;;
24801;SDS011;12898;50.520;12.152;2023-12-22T04:51:21;12.10;;;2.40;;
24801;SDS011;12898;50.520;12.152;2023-12-22T04:53:47;15.70;;;2.00;;
24801;SDS011;12898;50.520;12.152;2023-12-22T04:56:13;12.63;;;2.67;;
24801;SDS011;12898;50.520;12.152;2023-12-22T04:58:39;13.77;;;2.43;;
24801;SDS011;12898;50.520;12.152;2023-12-22T05:01:04;19.53;;;2.67;;
24801;SDS011;12898;50.520;12.152;2023-12-22T05:03:30;13.23;;;2.20;;
24801;SDS011;12898;50.520;12.152;2023-12-22T05:05:56;15.33;;;2.47;;
24801;SDS011;12898;50.520;12.152;2023-12-22T05:08:22;13.33;;;2.23;;
24801;SDS011;12898;50.520;12.152;2023-12-22T05:10:47;16.37;;;2.50;;
24801;SDS011;12898;50.520;12.152;2023-12-22T05:13:13;10.87;;;2.00;;
24801;SDS011;12898;50.520;12.152;2023-12-22T05:15:39;16.80;;;2.63;;
24801;SDS011;12898;50.520;12.152;2023-12-22T05:18:05;13.33;;;2.37;;
24801;SDS011;12898;50.520;12.152;2023-12-22T05:20:30;7.57;;;1.80;;
24801;SDS011;12898;50.520;12.152;2023-12-22T05:22:56;16.63;;;2.70;;
24801;SDS011;12898;50.520;12.152;2023-12-22T05:25:22;13.20;;;2.17;;
24801;SDS011;12898;50.520;12.152;2023-12-22T05:27:48;10.47;;;1.87;;
24801;SDS011;12898;50.520;12.152;2023-12-22T05:30:14;10.70;;;1.70;;
24801;SDS011;12898;50.520;12.152;2023-12-22T05:32:40;11.30;;;1.83;;
24801;SDS011;12898;50.520;12.152;2023-12-22T05:35:06;11.87;;;2.37;;
24801;SDS011;12898;50.520;12.152;2023-12-22T05:37:32;10.17;;;1.73;;
24801;SDS011;12898;50.520;12.152;2023-12-22T05:39:57;10.53;;;1.80;;
24801;SDS011;12898;50.520;12.152;2023-12-22T05:42:23;11.27;;;1.50;;
24801;SDS011;12898;50.520;12.152;2023-12-22T05:44:49;9.50;;;1.70;;
24801;SDS011;12898;50.520;12.152;2023-12-22T05:47:16;9.13;;;1.23;;
24801;SDS011;12898;50.520;12.152;2023-12-22T05:49:43;9.90;;;1.30;;
24801;SDS011;12898;50.520;12.152;2023-12-22T05:52:09;9.27;;;1.33;;
24801;SDS011;12898;50.520;12.152;2023-12-22T05:54:35;11.20;;;1.53;;
24801;SDS011;12898;50.520;12.152;2023-12-22T05:57:01;9.43;;;2.53;;
24801;SDS011;12898;50.520;12.152;2023-12-22T05:59:30;6.50;;;1.50;;
24801;SDS011;12898;50.520;12.152;2023-12-22T06:01:57;6.97;;;1.53;;
24801;SDS011;12898;50.520;12.152;2023-12-22T06:04:26;4.40;;;1.27;;
24801;SDS011;12898;50.520;12.152;2023-12-22T06:06:52;7.47;;;1.70;;
24801;SDS011;12898;50.520;12.152;2023-12-22T06:09:18;7.50;;;1.63;;
24801;SDS011;12898;50.520;12.152;2023-12-22T06:11:46;7.80;;;1.57;;
24801;SDS011;12898;50.520;12.152;2023-12-22T06:14:11;8.27;;;1.80;;
24801;SDS011;12898;50.520;12.152;2023-12-22T06:16:37;9.60;;;1.80;;
24801;SDS011;12898;50.520;12.152;2023-12-22T06:19:04;11.93;;;2.00;;
24801;SDS011;12898;50.520;12.152;2023-12-22T06:21:30;8.57;;;2.10;;
24801;SDS011;12898;50.520;12.152;2023-12-22T06:23:56;10.20;;;2.20;;
24801;SDS011;12898;50.520;12.152;2023-12-22T06:26:22;8.93;;;1.93;;
24801;SDS011;12898;50.520;12.152;2023-12-22T06:28:48;9.20;;;1.80;;
24801;SDS011;12898;50.520;12.152;2023-12-22T06:31:20;12.67;;;2.03;;
24801;SDS011;12898;50.520;12.152;2023-12-22T06:33:47;11.50;;;1.67;;
24801;SDS011;12898;50.520;12.152;2023-12-22T06:36:17;9.53;;;2.00;;
24801;SDS011;12898;50.520;12.152;2023-12-22T06:38:44;7.57;;;1.70;;
24801;SDS011;12898;50.520;12.152;2023-12-22T06:41:18;7.50;;;1.43;;
24801;SDS011;12898;50.520;12.152;2023-12-22T06:43:51;6.60;;;1.50;;
24801;SDS011;12898;50.520;12.152;2023-12-22T06:46:18;8.73;;;1.83;;
24801;SDS011;12898;50.520;12.152;2023-12-22T06:48:45;5.43;;;1.27;;
24801;SDS011;12898;50.520;12.152;2023-12-22T06:51:18;10.00;;;2.07;;
24801;SDS011;12898;50.520;12.152;2023-12-22T06:53:55;8.77;;;2.00;;
24801;SDS011;12898;50.520;12.152;2023-12-22T06:56:22;9.13;;;1.50;;
24801;SDS011;12898;50.520;12.152;2023-12-22T06:58:51;13.53;;;2.40;;
24801;SDS011;12898;50.520;12.152;2023-12-22T07:01:22;11.70;;;2.13;;
24801;SDS011;12898;50.520;12.152;2023-12-22T07:04:01;11.73;;;2.00;;
24801;SDS011;12898;50.520;12.152;2023-12-22T07:06:29;11.97;;;2.00;;
24801;SDS011;12898;50.520;12.152;2023-12-22T07:08:57;6.67;;;1.57;;
24801;SDS011;12898;50.520;12.152;2023-12-22T07:11:43;11.03;;;2.00;;
24801;SDS011;12898;50.520;12.152;2023-12-22T07:14:17;12.30;;;1.80;;
24801;SDS011;12898;50.520;12.152;2023-12-22T07:16:44;14.60;;;3.37;;
24801;SDS011;12898;50.520;12.152;2023-12-22T07:19:10;11.27;;;2.17;;
24801;SDS011;12898;50.520;12.152;2023-12-22T07:21:38;8.90;;;1.80;;
24801;SDS011;12898;50.520;12.152;2023-12-22T07:24:05;11.87;;;2.13;;
24801;SDS011;12898;50.520;12.152;2023-12-22T07:26:31;9.53;;;1.80;;
24801;SDS011;12898;50.520;12.152;2023-12-22T07:28:57;17.53;;;1.97;;
24801;SDS011;12898;50.520;12.152;2023-12-22T07:31:23;6.60;;;1.60;;
24801;SDS011;12898;50.520;12.152;2023-12-22T07:33:49;15.17;;;2.20;;
24801;SDS011;12898;50.520;12.152;2023-12-22T07:36:16;9.60;;;1.53;;
24801;SDS011;12898;50.520;12.152;2023-12-22T07:38:43;4.30;;;0.90;;
24801;SDS011;12898;50.520;12.152;2023-12-22T07:41:09;5.00;;;1.37;;
24801;SDS011;12898;50.520;12.152;2023-12-22T07:43:35;11.57;;;1.93;;
24801;SDS011;12898;50.520;12.152;2023-12-22T07:46:01;7.70;;;1.20;;
24801;SDS011;12898;50.520;12.152;2023-12-22T07:48:27;4.83;;;1.20;;
24801;SDS011;12898;50.520;12.152;2023-12-22T07:50:53;8.43;;;1.23;;
24801;SDS011;12898;50.520;12.152;2023-12-22T07:53:19;7.07;;;1.47;;
24801;SDS011;12898;50.520;12.152;2023-12-22T07:55:45;6.53;;;1.17;;
24801;SDS011;12898;50.520;12.152;2023-12-22T07:58:11;6.80;;;1.30;;
24801;SDS011;12898;50.520;12.152;2023-12-22T08:00:38;7.57;;;1.20;;
24801;SDS011;12898;50.520;12.152;2023-12-22T08:03:04;4.87;;;1.30;;
24801;SDS011;12898;50.520;12.152;2023-12-22T08:05:29;7.50;;;1.07;;
24801;SDS011;12898;50.520;12.152;2023-12-22T08:07:55;7.07;;;1.33;;
24801;SDS011;12898;50.520;12.152;2023-12-22T08:10:21;2.63;;;1.00;;
24801;SDS011;12898;50.520;12.152;2023-12-22T08:12:47;6.40;;;1.07;;
24801;SDS011;12898;50.520;12.152;2023-12-22T08:15:13;7.17;;;1.57;;
24801;SDS011;12898;50.520;12.152;2023-12-22T08:17:45;7.10;;;1.47;;
24801;SDS011;12898;50.520;12.152;2023-12-22T08:20:16;5.30;;;1.37;;
24801;SDS011;12898;50.520;12.152;2023-12-22T08:22:46;5.63;;;1.40;;
24801;SDS011;12898;50.520;12.152;2023-12-22T08:25:12;7.13;;;1.47;;
24801;SDS011;12898;50.520;12.152;2023-12-22T08:27:39;2.83;;;1.00;;
24801;SDS011;12898;50.520;12.152;2023-12-22T08:30:07;5.27;;;1.10;;
24801;SDS011;12898;50.520;12.152;2023-12-22T08:32:34;5.97;;;1.00;;
24801;SDS011;12898;50.520;12.152;2023-12-22T08:35:00;8.97;;;1.40;;
24801;SDS011;12898;50.520;12.152;2023-12-22T08:37:25;3.83;;;0.73;;
24801;SDS011;12898;50.520;12.152;2023-12-22T08:39:51;7.10;;;1.37;;
24801;SDS011;12898;50.520;12.152;2023-12-22T08:42:17;7.47;;;1.10;;
24801;SDS011;12898;50.520;12.152;2023-12-22T08:44:43;5.73;;;1.17;;
24801;SDS011;12898;50.520;12.152;2023-12-22T08:47:09;5.43;;;1.03;;
24801;SDS011;12898;50.520;12.152;2023-12-22T08:49:35;6.53;;;0.97;;
24801;SDS011;12898;50.520;12.152;2023-12-22T08:52:00;3.90;;;1.00;;
24801;SDS011;12898;50.520;12.152;2023-12-22T08:54:28;4.77;;;1.07;;
24801;SDS011;12898;50.520;12.152;2023-12-22T08:56:55;9.50;;;1.20;;
24801;SDS011;12898;50.520;12.152;2023-12-22T08:59:20;3.40;;;1.30;;
24801;SDS011;12898;50.520;12.152;2023-12-22T09:01:46;7.80;;;1.67;;
24801;SDS011;12898;50.520;12.152;2023-12-22T09:04:12;10.43;;;1.60;;
24801;SDS011;12898;50.520;12.152;2023-12-22T09:06:38;7.17;;;2.10;;
24801;SDS011;12898;50.520;12.152;2023-12-22T09:09:04;8.60;;;1.20;;
24801;SDS011;12898;50.520;12.152;2023-12-22T09:11:31;6.03;;;1.50;;
24801;SDS011;12898;50.520;12.152;2023-12-22T09:13:57;6.10;;;1.23;;
24801;SDS011;12898;50.520;12.152;2023-12-22T09:16:23;10.10;;;1.70;;
24801;SDS011;12898;50.520;12.152;2023-12-22T09:18:52;6.90;;;1.43;;
24801;SDS011;12898;50.520;12.152;2023-12-22T09:21:18;11.23;;;1.43;;
24801;SDS011;12898;50.520;12.152;2023-12-22T09:23:45;9.93;;;1.40;;
24801;SDS011;12898;50.520;12.152;2023-12-22T09:26:14;6.70;;;1.50;;
24801;SDS011;12898;50.520;12.152;2023-12-22T09:28:41;7.90;;;1.53;;
24801;SDS011;12898;50.520;12.152;2023-12-22T09:31:07;11.27;;;1.40;;
24801;SDS011;12898;50.520;12.152;2023-12-22T09:33:34;7.03;;;1.40;;
24801;SDS011;12898;50.520;12.152;2023-12-22T09:36:00;6.63;;;1.40;;
24801;SDS011;12898;50.520;12.152;2023-12-22T09:38:26;8.37;;;1.23;;
24801;SDS011;12898;50.520;12.152;2023-12-22T09:40:53;6.97;;;2.03;;
24801;SDS011;12898;50.520;12.152;2023-12-22T09:43:19;5.80;;;1.20;;
24801;SDS011;12898;50.520;12.152;2023-12-22T09:45:45;8.93;;;1.60;;
24801;SDS011;12898;50.520;12.152;2023-12-22T09:48:12;6.67;;;1.30;;
24801;SDS011;12898;50.520;12.152;2023-12-22T09:50:42;10.27;;;2.23;;
24801;SDS011;12898;50.520;12.152;2023-12-22T09:53:12;7.37;;;1.30;;
24801;SDS011;12898;50.520;12.152;2023-12-22T09:55:43;6.37;;;1.40;;
24801;SDS011;12898;50.520;12.152;2023-12-22T09:58:12;6.87;;;1.80;;
24801;SDS011;12898;50.520;12.152;2023-12-22T10:00:44;9.27;;;1.70;;
24801;SDS011;12898;50.520;12.152;2023-12-22T10:03:11;8.37;;;1.70;;
24801;SDS011;12898;50.520;12.152;2023-12-22T10:05:38;8.67;;;1.43;;
24801;SDS011;12898;50.520;12.152;2023-12-22T10:08:05;7.37;;;1.30;;
24801;SDS011;12898;50.520;12.152;2023-12-22T10:10:35;7.60;;;1.50;;
24801;SDS011;12898;50.520;12.152;2023-12-22T10:13:08;8.60;;;1.87;;
24801;SDS011;12898;50.520;12.152;2023-12-22T10:15:36;11.30;;;1.47;;
24801;SDS011;12898;50.520;12.152;2023-12-22T10:18:08;6.07;;;1.20;;
24801;SDS011;12898;50.520;12.152;2023-12-22T10:20:38;8.93;;;1.27;;
24801;SDS011;12898;50.520;12.152;2023-12-22T10:23:04;9.77;;;1.50;;
24801;SDS011;12898;50.520;12.152;2023-12-22T10:25:30;9.73;;;1.73;;
24801;SDS011;12898;50.520;12.152;2023-12-22T10:27:57;6.57;;;1.23;;
24801;SDS011;12898;50.520;12.152;2023-12-22T10:30:23;5.80;;;1.60;;
24801;SDS011;12898;50.520;12.152;2023-12-22T10:32:52;6.07;;;1.33;;
24801;SDS011;12898;50.520;12.152;2023-12-22T10:35:21;9.80;;;1.57;;
24801;SDS011;12898;50.520;12.152;2023-12-22T10:37:48;7.80;;;1.50;;
24801;SDS011;12898;50.520;12.152;2023-12-22T10:40:17;6.03;;;1.10;;
24801;SDS011;12898;50.520;12.152;2023-12-22T10:42:43;6.97;;;1.27;;
24801;SDS011;12898;50.520;12.152;2023-12-22T10:45:09;6.77;;;1.13;;
24801;SDS011;12898;50.520;12.152;2023-12-22T10:47:35;6.47;;;1.10;;
24801;SDS011;12898;50.520;12.152;2023-12-22T10:50:04;11.33;;;1.63;;
24801;SDS011;12898;50.520;12.152;2023-12-22T10:52:31;7.97;;;1.67;;
24801;SDS011;12898;50.520;12.152;2023-12-22T10:54:57;7.93;;;1.47;;
24801;SDS011;12898;50.520;12.152;2023-12-22T10:57:23;9.50;;;1.67;;
24801;SDS011;12898;50.520;12.152;2023-12-22T10:59:49;11.50;;;1.50;;
24801;SDS011;12898;50.520;12.152;2023-12-22T11:02:17;9.33;;;1.37;;
24801;SDS011;12898;50.520;12.152;2023-12-22T11:05:03;9.83;;;1.47;;
24801;SDS011;12898;50.520;12.152;2023-12-22T11:07:30;9.27;;;1.63;;
24801;SDS011;12898;50.520;12.152;2023-12-22T11:10:02;6.23;;;1.43;;
24801;SDS011;12898;50.520;12.152;2023-12-22T11:12:33;7.73;;;1.37;;
24801;SDS011;12898;50.520;12.152;2023-12-22T11:15:02;7.07;;;1.23;;
24801;SDS011;12898;50.520;12.152;2023-12-22T11:17:32;7.03;;;1.20;;
24801;SDS011;12898;50.520;12.152;2023-12-22T11:20:00;5.67;;;1.33;;
24801;SDS011;12898;50.520;12.152;2023-12-22T11:22:28;5.43;;;1.80;;
24801;SDS011;12898;50.520;12.152;2023-12-22T11:24:56;8.50;;;1.23;;
24801;SDS011;12898;50.520;12.152;2023-12-22T11:27:25;9.77;;;2.20;;
24801;SDS011;12898;50.520;12.152;2023-12-22T11:29:54;5.63;;;1.33;;
24801;SDS011;12898;50.520;12.152;2023-12-22T11:32:20;9.90;;;3.50;;
24801;SDS011;12898;50.520;12.152;2023-12-22T11:34:46;4.30;;;1.50;;
24801;SDS011;12898;50.520;12.152;2023-12-22T11:37:13;8.53;;;1.93;;
24801;SDS011;12898;50.520;12.152;2023-12-22T11:39:40;4.87;;;1.40;;
24801;SDS011;12898;50.520;12.152;2023-12-22T11:42:27;6.20;;;1.30;;
24801;SDS011;12898;50.520;12.152;2023-12-22T11:44:57;6.67;;;1.33;;
24801;SDS011;12898;50.520;12.152;2023-12-22T11:47:24;6.43;;;1.90;;
24801;SDS011;12898;50.520;12.152;2023-12-22T11:49:50;7.80;;;1.33;;
24801;SDS011;12898;50.520;12.152;2023-12-22T11:52:17;5.07;;;1.33;;
24801;SDS011;12898;50.520;12.152;2023-12-22T11:59:52;6.53;;;1.57;;
24801;SDS011;12898;50.520;12.152;2023-12-22T12:02:42;4.13;;;1.10;;
24801;SDS011;12898;50.520;12.152;2023-12-22T12:05:08;5.53;;;1.20;;
24801;SDS011;12898;50.520;12.152;2023-12-22T12:07:38;4.33;;;1.17;;
24801;SDS011;12898;50.520;12.152;2023-12-22T12:13:06;3.87;;;0.80;;
24801;SDS011;12898;50.520;12.152;2023-12-22T12:15:36;2.33;;;0.97;;
24801;SDS011;12898;50.520;12.152;2023-12-22T12:18:03;3.33;;;1.00;;
24801;SDS011;12898;50.520;12.152;2023-12-22T12:20:31;5.00;;;0.90;;
24801;SDS011;12898;50.520;12.152;2023-12-22T12:22:58;2.07;;;0.90;;
24801;SDS011;12898;50.520;12.152;2023-12-22T12:25:25;1.77;;;0.90;;
24801;SDS011;12898;50.520;12.152;2023-12-22T12:28:00;1.63;;;0.60;;
24801;SDS011;12898;50.520;12.152;2023-12-22T12:30:31;2.90;;;0.67;;
24801;SDS011;12898;50.520;12.152;2023-12-22T12:35:35;4.57;;;0.90;;
24801;SDS011;12898;50.520;12.152;2023-12-22T12:38:04;4.20;;;1.07;;
24801;SDS011;12898;50.520;12.152;2023-12-22T12:40:31;4.10;;;0.90;;
24801;SDS011;12898;50.520;12.152;2023-12-22T12:43:00;2.83;;;0.87;;
24801;SDS011;12898;50.520;12.152;2023-12-22T12:45:27;3.00;;;1.10;;
24801;SDS011;12898;50.520;12.152;2023-12-22T12:48:00;2.57;;;0.83;;
24801;SDS011;12898;50.520;12.152;2023-12-22T12:50:27;1.47;;;0.80;;
24801;SDS011;12898;50.520;12.152;2023-12-22T12:52:54;7.07;;;1.10;;
24801;SDS011;12898;50.520;12.152;2023-12-22T12:55:21;1.70;;;0.83;;
24801;SDS011;12898;50.520;12.152;2023-12-22T12:57:50;1.73;;;0.70;;
24801;SDS011;12898;50.520;12.152;2023-12-22T13:00:23;4.40;;;1.00;;
24801;SDS011;12898;50.520;12.152;2023-12-22T13:02:50;3.70;;;0.60;;
24801;SDS011;12898;50.520;12.152;2023-12-22T13:05:21;1.47;;;0.60;;
24801;SDS011;12898;50.520;12.152;2023-12-22T13:07:50;2.60;;;0.80;;
24801;SDS011;12898;50.520;12.152;2023-12-22T13:10:20;2.07;;;0.70;;
24801;SDS011;12898;50.520;12.152;2023-12-22T13:12:47;2.77;;;1.07;;
24801;SDS011;12898;50.520;12.152;2023-12-22T13:15:14;5.13;;;1.33;;
24801;SDS011;12898;50.520;12.152;2023-12-22T13:17:41;3.73;;;1.13;;
24801;SDS011;12898;50.520;12.152;2023-12-22T13:20:09;1.43;;;0.70;;
24801;SDS011;12898;50.520;12.152;2023-12-22T13:22:36;2.93;;;1.13;;
24801;SDS011;12898;50.520;12.152;2023-12-22T13:25:02;2.87;;;0.90;;
24801;SDS011;12898;50.520;12.152;2023-12-22T13:27:29;2.33;;;0.77;;
24801;SDS011;12898;50.520;12.152;2023-12-22T13:29:55;4.50;;;0.93;;
24801;SDS011;12898;50.520;12.152;2023-12-22T13:32:21;1.70;;;0.70;;
24801;SDS011;12898;50.520;12.152;2023-12-22T13:34:51;3.03;;;0.70;;
24801;SDS011;12898;50.520;12.152;2023-12-22T13:37:18;1.60;;;0.50;;
24801;SDS011;12898;50.520;12.152;2023-12-22T13:39:45;2.00;;;0.70;;
24801;SDS011;12898;50.520;12.152;2023-12-22T13:42:18;4.70;;;0.70;;
24801;SDS011;12898;50.520;12.152;2023-12-22T13:44:47;3.43;;;0.70;;
24801;SDS011;12898;50.520;12.152;2023-12-22T13:47:17;4.63;;;1.00;;
24801;SDS011;12898;50.520;12.152;2023-12-22T13:49:47;0.77;;;0.53;;
24801;SDS011;12898;50.520;12.152;2023-12-22T13:52:29;3.63;;;0.77;;
24801;SDS011;12898;50.520;12.152;2023-12-22T13:54:57;3.33;;;0.70;;
24801;SDS011;12898;50.520;12.152;2023-12-22T13:57:26;3.00;;;1.10;;
24801;SDS011;12898;50.520;12.152;2023-12-22T13:59:52;3.77;;;0.83;;
24801;SDS011;12898;50.520;12.152;2023-12-22T14:02:21;3.30;;;0.70;;
24801;SDS011;12898;50.520;12.152;2023-12-22T14:04:48;3.60;;;0.80;;
24801;SDS011;12898;50.520;12.152;2023-12-22T14:07:16;3.03;;;0.77;;
24801;SDS011;12898;50.520;12.152;2023-12-22T14:09:42;3.10;;;0.83;;
24801;SDS011;12898;50.520;12.152;2023-12-22T14:12:08;4.87;;;1.17;;
24801;SDS011;12898;50.520;12.152;2023-12-22T14:14:34;4.63;;;1.27;;
24801;SDS011;12898;50.520;12.152;2023-12-22T14:17:00;3.27;;;1.00;;
24801;SDS011;12898;50.520;12.152;2023-12-22T14:19:26;1.57;;;1.00;;
24801;SDS011;12898;50.520;12.152;2023-12-22T14:21:52;2.63;;;0.80;;
24801;SDS011;12898;50.520;12.152;2023-12-22T14:24:17;3.90;;;0.93;;
24801;SDS011;12898;50.520;12.152;2023-12-22T14:26:53;0.83;;;0.70;;
24801;SDS011;12898;50.520;12.152;2023-12-22T14:29:20;3.27;;;1.23;;
24801;SDS011;12898;50.520;12.152;2023-12-22T14:31:47;3.43;;;0.60;;
24801;SDS011;12898;50.520;12.152;2023-12-22T14:34:17;1.50;;;0.30;;
24801;SDS011;12898;50.520;12.152;2023-12-22T14:36:43;1.40;;;0.60;;
24801;SDS011;12898;50.520;12.152;2023-12-22T14:39:10;2.40;;;0.60;;
24801;SDS011;12898;50.520;12.152;2023-12-22T14:41:38;0.50;;;0.50;;
24801;SDS011;12898;50.520;12.152;2023-12-22T14:44:06;2.33;;;0.80;;